createdAt,value
2017-12-03T00:00:40.212Z,2.02
2017-12-03T00:01:40.191Z,2.02
2017-12-03T00:02:40.174Z,2.02
2017-12-03T00:03:40.161Z,1.83
2017-12-03T00:04:40.139Z,1.86
2017-12-03T00:05:40.117Z,1.92
2017-12-03T00:06:40.099Z,1.89
2017-12-03T00:07:40.086Z,1.89
2017-12-03T00:08:40.059Z,2.00
2017-12-03T00:09:40.050Z,2.02
2017-12-03T00:10:40.022Z,2.05
2017-12-03T00:11:40.015Z,2.11
2017-12-03T00:12:39.999Z,2.02
2017-12-03T00:13:39.970Z,1.98
2017-12-03T00:14:39.956Z,1.89
2017-12-03T00:15:39.927Z,1.81
2017-12-03T00:16:39.911Z,1.75
2017-12-03T00:17:39.891Z,1.79
2017-12-03T00:18:39.879Z,1.90
2017-12-03T00:19:39.853Z,1.89
2017-12-03T00:20:39.849Z,1.75
2017-12-03T00:21:39.816Z,2.04
2017-12-03T00:22:39.804Z,1.90
2017-12-03T00:23:39.779Z,1.85
2017-12-03T00:24:39.764Z,1.83
2017-12-03T00:25:39.742Z,1.90
2017-12-03T00:26:39.728Z,1.82
2017-12-03T00:27:39.711Z,1.89
2017-12-03T00:28:39.686Z,1.95
2017-12-03T00:29:39.671Z,2.02
2017-12-03T00:30:39.647Z,2.09
2017-12-03T00:31:39.629Z,1.88
2017-12-03T00:32:39.615Z,1.92
2017-12-03T00:33:39.605Z,1.82
2017-12-03T00:34:39.575Z,1.86
2017-12-03T00:35:39.554Z,1.74
2017-12-03T00:36:39.536Z,1.90
2017-12-03T00:37:39.532Z,1.82
2017-12-03T00:38:39.501Z,1.75
2017-12-03T00:39:39.488Z,1.79
2017-12-03T00:40:39.470Z,1.70
2017-12-03T00:41:39.443Z,1.68
2017-12-03T00:42:39.489Z,1.68
2017-12-03T00:43:39.412Z,1.54
2017-12-03T00:44:39.386Z,1.70
2017-12-03T00:45:39.369Z,1.67
2017-12-03T00:46:39.355Z,1.63
2017-12-03T00:47:39.331Z,1.50
2017-12-03T00:48:39.321Z,1.56
2017-12-03T00:49:39.337Z,1.64
2017-12-03T00:50:39.275Z,1.63
2017-12-03T00:51:39.256Z,1.65
2017-12-03T00:52:39.254Z,1.81
2017-12-03T00:53:39.220Z,1.67
2017-12-03T00:54:39.211Z,1.77
2017-12-03T00:55:39.188Z,1.77
2017-12-03T00:56:39.168Z,1.90
2017-12-03T00:57:39.145Z,1.81
2017-12-03T00:58:39.127Z,1.95
2017-12-03T00:59:39.107Z,1.95
2017-12-03T01:00:39.088Z,2.04
2017-12-03T01:01:39.078Z,1.83
2017-12-03T01:02:39.051Z,1.72
2017-12-03T01:03:39.037Z,1.74
2017-12-03T01:04:39.013Z,1.65
2017-12-03T01:05:39.001Z,1.72
2017-12-03T01:06:38.984Z,1.72
2017-12-03T01:07:38.959Z,1.56
2017-12-03T01:08:38.941Z,1.65
2017-12-03T01:09:38.922Z,1.44
2017-12-03T01:10:38.909Z,1.52
2017-12-03T01:11:38.883Z,1.61
2017-12-03T01:12:38.876Z,1.61
2017-12-03T01:13:38.847Z,1.74
2017-12-03T01:14:38.832Z,1.75
2017-12-03T01:15:38.810Z,1.95
2017-12-03T01:16:38.792Z,1.74
2017-12-03T01:17:38.775Z,1.75
2017-12-03T01:18:38.754Z,1.74
2017-12-03T01:19:38.736Z,1.68
2017-12-03T01:20:38.722Z,1.70
2017-12-03T01:21:38.698Z,1.57
2017-12-03T01:22:38.680Z,1.65
2017-12-03T01:23:38.672Z,1.65
2017-12-03T01:24:38.656Z,1.71
2017-12-03T01:25:38.627Z,1.71
2017-12-03T01:26:38.612Z,1.83
2017-12-03T01:27:38.597Z,1.75
2017-12-03T01:28:38.575Z,1.85
2017-12-03T01:29:38.550Z,1.86
2017-12-03T01:30:38.535Z,1.77
2017-12-03T01:31:38.522Z,1.77
2017-12-03T01:32:38.500Z,1.71
2017-12-03T01:33:38.475Z,1.79
2017-12-03T01:34:38.471Z,1.77
2017-12-03T01:35:38.439Z,1.75
2017-12-03T01:36:38.426Z,1.70
2017-12-03T01:37:38.403Z,1.71
2017-12-03T01:38:38.385Z,1.72
2017-12-03T01:39:38.373Z,1.63
2017-12-03T01:40:38.355Z,1.50
2017-12-03T01:41:38.328Z,1.57
2017-12-03T01:42:38.323Z,1.54
2017-12-03T01:43:38.289Z,1.47
2017-12-03T01:44:38.271Z,1.47
2017-12-03T01:45:38.258Z,1.44
2017-12-03T01:46:38.241Z,1.57
2017-12-03T01:47:38.225Z,1.52
2017-12-03T01:48:38.207Z,1.46
2017-12-03T01:49:38.185Z,1.36
2017-12-03T01:50:38.161Z,1.44
2017-12-03T01:51:38.147Z,1.44
2017-12-03T01:52:38.131Z,1.50
2017-12-03T01:53:38.105Z,1.49
2017-12-03T01:54:38.097Z,1.63
2017-12-03T01:55:38.073Z,1.54
2017-12-03T01:56:38.055Z,1.35
2017-12-03T01:57:38.038Z,1.28
2017-12-03T01:58:38.012Z,1.25
2017-12-03T01:59:38.000Z,1.14
2017-12-03T02:00:37.980Z,1.06
2017-12-03T02:01:37.957Z,0.98
2017-12-03T02:02:37.938Z,1.02
2017-12-03T02:03:37.933Z,1.02
2017-12-03T02:04:37.903Z,1.17
2017-12-03T02:05:37.880Z,1.18
2017-12-03T02:06:37.862Z,1.18
2017-12-03T02:07:37.842Z,1.29
2017-12-03T02:08:37.822Z,1.28
2017-12-03T02:09:37.803Z,1.32
2017-12-03T02:10:37.795Z,1.29
2017-12-03T02:11:37.798Z,1.17
2017-12-03T02:12:37.746Z,1.26
2017-12-03T02:13:37.729Z,1.26
2017-12-03T02:14:37.710Z,1.18
2017-12-03T02:15:37.703Z,1.17
2017-12-03T02:16:37.670Z,1.13
2017-12-03T02:17:37.659Z,1.24
2017-12-03T02:18:37.636Z,1.31
2017-12-03T02:19:37.613Z,1.32
2017-12-03T02:20:37.594Z,1.32
2017-12-03T02:21:37.577Z,1.39
2017-12-03T02:22:37.560Z,1.47
2017-12-03T02:23:37.539Z,1.50
2017-12-03T02:24:37.525Z,1.49
2017-12-03T02:25:37.506Z,1.38
2017-12-03T02:26:37.488Z,1.35
2017-12-03T02:27:37.462Z,1.34
2017-12-03T02:28:37.445Z,1.34
2017-12-03T02:29:37.428Z,1.34
2017-12-03T02:30:37.408Z,1.34
2017-12-03T02:31:37.388Z,1.44
2017-12-03T02:32:37.369Z,1.36
2017-12-03T02:33:37.352Z,1.35
2017-12-03T02:34:37.332Z,1.36
2017-12-03T02:35:37.318Z,1.38
2017-12-03T02:36:37.304Z,1.28
2017-12-03T02:37:37.277Z,1.18
2017-12-03T02:38:37.256Z,1.20
2017-12-03T02:39:37.243Z,1.14
2017-12-03T02:40:37.226Z,0.99
2017-12-03T02:41:37.209Z,1.00
2017-12-03T02:42:37.181Z,1.00
2017-12-03T02:43:37.161Z,1.00
2017-12-03T02:44:37.145Z,0.98
2017-12-03T02:45:37.123Z,1.14
2017-12-03T02:46:37.138Z,1.24
2017-12-03T02:47:37.092Z,1.32
2017-12-03T02:48:37.074Z,1.08
2017-12-03T02:49:37.050Z,1.11
2017-12-03T02:50:37.045Z,1.10
2017-12-03T02:51:37.012Z,1.24
2017-12-03T02:52:36.992Z,1.28
2017-12-03T02:53:36.980Z,1.35
2017-12-03T02:54:36.959Z,1.35
2017-12-03T02:55:36.934Z,1.36
2017-12-03T02:56:36.923Z,1.38
2017-12-03T02:57:36.906Z,1.35
2017-12-03T02:58:36.891Z,1.32
2017-12-03T02:59:36.865Z,1.20
2017-12-03T03:00:36.861Z,1.36
2017-12-03T03:01:36.821Z,1.31
2017-12-03T03:02:36.803Z,1.31
2017-12-03T03:03:36.782Z,1.32
2017-12-03T03:04:36.765Z,1.21
2017-12-03T03:05:36.745Z,1.17
2017-12-03T03:06:36.728Z,1.32
2017-12-03T03:07:36.715Z,1.28
2017-12-03T03:08:36.704Z,1.34
2017-12-03T03:09:36.678Z,1.38
2017-12-03T03:10:36.666Z,1.39
2017-12-03T03:11:36.637Z,1.35
2017-12-03T03:12:36.622Z,1.47
2017-12-03T03:13:36.598Z,1.32
2017-12-03T03:14:36.583Z,1.26
2017-12-03T03:15:36.559Z,1.29
2017-12-03T03:16:36.547Z,1.18
2017-12-03T03:17:36.520Z,1.24
2017-12-03T03:18:36.515Z,1.20
2017-12-03T03:19:36.483Z,1.13
2017-12-03T03:20:36.468Z,1.06
2017-12-03T03:21:36.460Z,1.08
2017-12-03T03:22:36.428Z,0.98
2017-12-03T03:23:36.406Z,0.96
2017-12-03T03:24:36.394Z,1.02
2017-12-03T03:25:36.384Z,1.07
2017-12-03T03:26:36.351Z,1.07
2017-12-03T03:27:36.331Z,1.07
2017-12-03T03:28:36.313Z,1.18
2017-12-03T03:29:36.309Z,1.13
2017-12-03T03:30:36.276Z,1.06
2017-12-03T03:31:36.259Z,1.11
2017-12-03T03:32:36.238Z,1.29
2017-12-03T03:33:36.221Z,1.28
2017-12-03T03:34:36.200Z,1.28
2017-12-03T03:35:36.183Z,1.46
2017-12-03T03:36:36.169Z,1.53
2017-12-03T03:37:36.146Z,1.57
2017-12-03T03:38:36.135Z,1.53
2017-12-03T03:39:36.120Z,1.60
2017-12-03T03:40:36.088Z,1.44
2017-12-03T03:41:36.070Z,1.43
2017-12-03T03:42:36.052Z,1.54
2017-12-03T03:43:36.040Z,1.72
2017-12-03T03:44:36.019Z,1.72
2017-12-03T03:45:36.002Z,1.88
2017-12-03T03:46:35.976Z,1.75
2017-12-03T03:47:35.962Z,1.92
2017-12-03T03:48:35.942Z,2.00
2017-12-03T03:49:35.928Z,1.92
2017-12-03T03:50:35.901Z,1.95
2017-12-03T03:51:35.881Z,2.00
2017-12-03T03:52:35.864Z,2.04
2017-12-03T03:53:35.854Z,1.90
2017-12-03T03:54:35.832Z,2.02
2017-12-03T03:55:35.811Z,2.07
2017-12-03T03:56:35.795Z,2.04
2017-12-03T03:57:35.773Z,1.85
2017-12-03T03:58:35.750Z,1.79
2017-12-03T03:59:35.736Z,1.83
2017-12-03T04:00:35.721Z,1.72
2017-12-03T04:01:35.702Z,1.70
2017-12-03T04:02:35.675Z,1.61
2017-12-03T04:03:35.655Z,1.61
2017-12-03T04:04:35.643Z,1.70
2017-12-03T04:05:35.624Z,1.74
2017-12-03T04:06:35.599Z,1.67
2017-12-03T04:07:35.578Z,1.57
2017-12-03T04:08:35.562Z,1.57
2017-12-03T04:09:35.543Z,1.63
2017-12-03T04:10:35.529Z,1.68
2017-12-03T04:11:35.510Z,1.65
2017-12-03T04:12:35.496Z,1.57
2017-12-03T04:13:35.475Z,1.52
2017-12-03T04:14:35.449Z,1.52
2017-12-03T04:15:35.428Z,1.54
2017-12-03T04:16:35.411Z,1.50
2017-12-03T04:17:35.394Z,1.46
2017-12-03T04:18:35.374Z,1.44
2017-12-03T04:19:35.363Z,1.56
2017-12-03T04:20:35.336Z,1.68
2017-12-03T04:21:35.326Z,1.74
2017-12-03T04:22:35.305Z,1.72
2017-12-03T04:23:35.287Z,1.65
2017-12-03T04:24:35.277Z,1.64
2017-12-03T04:25:35.244Z,1.44
2017-12-03T04:26:35.227Z,1.46
2017-12-03T04:27:35.205Z,1.50
2017-12-03T04:28:35.196Z,1.43
2017-12-03T04:29:35.168Z,1.49
2017-12-03T04:30:35.147Z,1.49
2017-12-03T04:31:35.135Z,1.46
2017-12-03T04:32:35.117Z,1.43
2017-12-03T04:33:35.093Z,1.42
2017-12-03T04:34:35.083Z,1.42
2017-12-03T04:35:35.055Z,1.34
2017-12-03T04:36:35.038Z,1.39
2017-12-03T04:37:35.017Z,1.39
2017-12-03T04:38:35.006Z,1.35
2017-12-03T04:39:34.978Z,1.28
2017-12-03T04:40:34.961Z,1.31
2017-12-03T04:41:34.951Z,1.28
2017-12-03T04:42:34.924Z,1.08
2017-12-03T04:43:34.915Z,1.17
2017-12-03T04:44:34.894Z,1.14
2017-12-03T04:45:34.876Z,1.07
2017-12-03T04:46:34.849Z,1.06
2017-12-03T04:47:34.828Z,1.17
2017-12-03T04:48:34.810Z,1.08
2017-12-03T04:49:34.801Z,1.08
2017-12-03T04:50:34.782Z,1.14
2017-12-03T04:51:34.762Z,1.11
2017-12-03T04:52:34.737Z,1.17
2017-12-03T04:53:34.719Z,1.07
2017-12-03T04:54:34.698Z,1.07
2017-12-03T04:55:34.691Z,1.06
2017-12-03T04:56:34.659Z,1.18
2017-12-03T04:57:34.639Z,1.13
2017-12-03T04:58:34.636Z,1.07
2017-12-03T04:59:34.601Z,1.10
2017-12-03T05:00:34.589Z,1.28
2017-12-03T05:01:34.571Z,1.17
2017-12-03T05:02:34.555Z,1.14
2017-12-03T05:03:34.526Z,1.31
2017-12-03T05:04:34.508Z,1.29
2017-12-03T05:05:34.488Z,1.28
2017-12-03T05:06:34.468Z,1.35
2017-12-03T05:07:34.458Z,1.29
2017-12-03T05:08:34.432Z,1.29
2017-12-03T05:09:34.411Z,1.18
2017-12-03T05:10:34.394Z,1.29
2017-12-03T05:11:34.373Z,1.26
2017-12-03T05:12:34.355Z,1.31
2017-12-03T05:13:34.340Z,1.28
2017-12-03T05:14:34.317Z,1.26
2017-12-03T05:15:34.306Z,1.34
2017-12-03T05:16:34.297Z,1.29
2017-12-03T05:17:34.258Z,1.34
2017-12-03T05:18:34.241Z,1.32
2017-12-03T05:19:34.222Z,1.36
2017-12-03T05:20:34.203Z,1.35
2017-12-03T05:21:34.184Z,1.29
2017-12-03T05:22:34.174Z,1.21
2017-12-03T05:23:34.153Z,1.28
2017-12-03T05:24:34.126Z,1.29
2017-12-03T05:25:34.107Z,1.26
2017-12-03T05:26:34.089Z,1.21
2017-12-03T05:27:34.069Z,1.25
2017-12-03T05:28:34.063Z,1.13
2017-12-03T05:29:34.033Z,0.93
2017-12-03T05:30:34.014Z,0.98
2017-12-03T05:31:33.994Z,1.06
2017-12-03T05:32:33.978Z,0.99
2017-12-03T05:33:33.955Z,0.99
2017-12-03T05:34:33.939Z,1.04
2017-12-03T05:35:33.926Z,1.02
2017-12-03T05:36:33.899Z,1.14
2017-12-03T05:37:33.878Z,1.04
2017-12-03T05:38:33.860Z,1.14
2017-12-03T05:39:33.842Z,1.13
2017-12-03T05:40:33.831Z,1.16
2017-12-03T05:41:33.812Z,1.11
2017-12-03T05:42:33.791Z,1.08
2017-12-03T05:43:33.763Z,1.04
2017-12-03T05:44:33.750Z,1.11
2017-12-03T05:45:33.732Z,1.07
2017-12-03T05:46:33.706Z,0.82
2017-12-03T05:47:33.692Z,0.82
2017-12-03T05:48:33.674Z,0.78
2017-12-03T05:49:33.651Z,0.81
2017-12-03T05:50:33.631Z,0.80
2017-12-03T05:51:33.615Z,0.77
2017-12-03T05:52:33.591Z,0.77
2017-12-03T05:53:33.573Z,0.90
2017-12-03T05:54:33.556Z,0.93
2017-12-03T05:55:33.543Z,0.90
2017-12-03T05:56:33.520Z,0.84
2017-12-03T05:57:33.504Z,0.90
2017-12-03T05:58:33.480Z,0.90
2017-12-03T05:59:33.458Z,0.89
2017-12-03T06:00:33.443Z,0.86
2017-12-03T06:01:33.419Z,0.89
2017-12-03T06:02:33.400Z,0.81
2017-12-03T06:03:33.392Z,0.78
2017-12-03T06:04:33.358Z,0.84
2017-12-03T06:05:33.342Z,0.86
2017-12-03T06:06:33.328Z,1.00
2017-12-03T06:07:33.299Z,1.00
2017-12-03T06:08:33.286Z,0.96
2017-12-03T06:09:33.263Z,0.96
2017-12-03T06:10:33.250Z,0.95
2017-12-03T06:11:33.223Z,0.98
2017-12-03T06:12:33.204Z,0.98
2017-12-03T06:13:33.199Z,1.00
2017-12-03T06:14:33.172Z,0.93
2017-12-03T06:15:33.150Z,1.06
2017-12-03T06:16:33.126Z,1.08
2017-12-03T06:17:33.108Z,0.96
2017-12-03T06:18:33.088Z,1.00
2017-12-03T06:19:33.068Z,1.07
2017-12-03T06:20:33.054Z,1.17
2017-12-03T06:21:33.030Z,1.08
2017-12-03T06:22:33.009Z,1.10
2017-12-03T06:23:32.990Z,1.17
2017-12-03T06:24:32.972Z,1.31
2017-12-03T06:25:32.951Z,1.20
2017-12-03T06:26:32.933Z,1.25
2017-12-03T06:27:32.923Z,1.31
2017-12-03T06:28:32.893Z,1.28
2017-12-03T06:29:32.877Z,1.29
2017-12-03T06:30:32.864Z,1.31
2017-12-03T06:31:32.834Z,1.24
2017-12-03T06:32:32.816Z,1.34
2017-12-03T06:33:32.801Z,1.31
2017-12-03T06:34:32.781Z,1.31
2017-12-03T06:35:32.759Z,1.36
2017-12-03T06:36:32.747Z,1.39
2017-12-03T06:37:32.729Z,1.36
2017-12-03T06:38:32.711Z,1.36
2017-12-03T06:39:32.681Z,1.43
2017-12-03T06:40:32.664Z,1.49
2017-12-03T06:41:32.650Z,1.53
2017-12-03T06:42:32.634Z,1.46
2017-12-03T06:43:32.603Z,1.50
2017-12-03T06:44:32.583Z,1.56
2017-12-03T06:45:32.565Z,1.56
2017-12-03T06:46:32.546Z,1.47
2017-12-03T06:47:32.530Z,1.39
2017-12-03T06:48:32.513Z,1.42
2017-12-03T06:49:32.494Z,1.39
2017-12-03T06:50:32.474Z,1.46
2017-12-03T06:51:32.458Z,1.52
2017-12-03T06:52:32.438Z,1.43
2017-12-03T06:53:32.418Z,1.42
2017-12-03T06:54:32.396Z,1.46
2017-12-03T06:55:32.372Z,1.42
2017-12-03T06:56:32.361Z,1.31
2017-12-03T06:57:32.335Z,1.32
2017-12-03T06:58:32.315Z,1.32
2017-12-03T06:59:32.300Z,1.42
2017-12-03T07:00:32.281Z,1.28
2017-12-03T07:01:32.265Z,1.35
2017-12-03T07:02:32.237Z,1.26
2017-12-03T07:03:32.223Z,1.24
2017-12-03T07:04:32.198Z,1.21
2017-12-03T07:05:32.191Z,1.34
2017-12-03T07:06:32.182Z,1.34
2017-12-03T07:07:32.149Z,1.35
2017-12-03T07:08:32.123Z,1.36
2017-12-03T07:09:32.105Z,1.32
2017-12-03T07:10:32.085Z,1.36
2017-12-03T07:11:32.074Z,1.38
2017-12-03T07:12:32.046Z,1.34
2017-12-03T07:13:32.037Z,1.32
2017-12-03T07:14:32.007Z,1.36
2017-12-03T07:15:31.994Z,1.34
2017-12-03T07:16:31.969Z,1.34
2017-12-03T07:17:31.956Z,1.34
2017-12-03T07:18:31.941Z,1.28
2017-12-03T07:19:31.911Z,1.17
2017-12-03T07:20:31.893Z,1.13
2017-12-03T07:21:31.882Z,1.06
2017-12-03T07:22:31.861Z,0.96
2017-12-03T07:23:31.836Z,0.96
2017-12-03T07:24:31.831Z,1.00
2017-12-03T07:25:31.812Z,0.99
2017-12-03T07:26:31.781Z,0.95
2017-12-03T07:27:31.766Z,0.99
2017-12-03T07:28:31.740Z,1.00
2017-12-03T07:29:31.722Z,1.00
2017-12-03T07:30:31.705Z,1.07
2017-12-03T07:31:31.685Z,1.08
2017-12-03T07:32:31.673Z,1.08
2017-12-03T07:33:31.645Z,1.21
2017-12-03T07:34:31.636Z,1.29
2017-12-03T07:35:31.608Z,1.34
2017-12-03T07:36:31.588Z,1.29
2017-12-03T07:37:31.570Z,1.35
2017-12-03T07:38:31.560Z,1.44
2017-12-03T07:39:31.533Z,1.36
2017-12-03T07:40:31.513Z,1.32
2017-12-03T07:41:31.495Z,1.35
2017-12-03T07:42:31.483Z,1.42
2017-12-03T07:43:31.461Z,1.31
2017-12-03T07:44:31.446Z,1.29
2017-12-03T07:45:31.428Z,1.16
2017-12-03T07:46:31.398Z,1.24
2017-12-03T07:47:31.385Z,1.14
2017-12-03T07:48:31.359Z,1.26
2017-12-03T07:49:31.344Z,1.28
2017-12-03T07:50:31.324Z,1.14
2017-12-03T07:51:31.304Z,1.18
2017-12-03T07:52:31.285Z,1.25
2017-12-03T07:53:31.265Z,1.39
2017-12-03T07:54:31.247Z,1.53
2017-12-03T07:55:31.228Z,1.67
2017-12-03T07:56:31.214Z,1.60
2017-12-03T07:57:31.205Z,1.53
2017-12-03T07:58:31.171Z,1.57
2017-12-03T07:59:31.162Z,1.52
2017-12-03T08:00:31.139Z,1.47
2017-12-03T08:01:31.123Z,1.57
2017-12-03T08:02:31.104Z,1.60
2017-12-03T08:03:31.078Z,1.53
2017-12-03T08:04:31.067Z,1.46
2017-12-03T08:05:31.042Z,1.60
2017-12-03T08:06:31.037Z,1.65
2017-12-03T08:07:31.010Z,1.53
2017-12-03T08:08:30.984Z,1.56
2017-12-03T08:09:30.969Z,1.56
2017-12-03T08:10:30.949Z,1.50
2017-12-03T08:11:30.926Z,1.52
2017-12-03T08:12:30.916Z,1.50
2017-12-03T08:13:30.900Z,1.47
2017-12-03T08:14:30.880Z,1.56
2017-12-03T08:15:30.854Z,1.44
2017-12-03T08:16:30.840Z,1.44
2017-12-03T08:17:30.819Z,1.39
2017-12-03T08:18:30.797Z,1.35
2017-12-03T08:19:30.780Z,1.42
2017-12-03T08:20:30.765Z,1.38
2017-12-03T08:21:30.741Z,1.32
2017-12-03T08:22:30.730Z,1.31
2017-12-03T08:23:30.703Z,1.35
2017-12-03T08:24:30.693Z,1.28
2017-12-03T08:25:30.668Z,1.26
2017-12-03T08:26:30.649Z,1.44
2017-12-03T08:27:30.628Z,1.38
2017-12-03T08:28:30.620Z,1.44
2017-12-03T08:29:30.601Z,1.53
2017-12-03T08:30:30.577Z,1.53
2017-12-03T08:31:30.560Z,1.68
2017-12-03T08:32:30.542Z,1.74
2017-12-03T08:33:30.519Z,1.77
2017-12-03T08:34:30.507Z,1.81
2017-12-03T08:35:30.487Z,1.68
2017-12-03T08:36:30.467Z,1.77
2017-12-03T08:37:30.450Z,1.72
2017-12-03T08:38:30.425Z,1.74
2017-12-03T08:39:30.407Z,1.68
2017-12-03T08:40:30.388Z,1.74
2017-12-03T08:41:30.369Z,1.68
2017-12-03T08:42:30.358Z,1.67
2017-12-03T08:43:30.331Z,1.71
2017-12-03T08:44:30.327Z,1.75
2017-12-03T08:45:30.298Z,1.71
2017-12-03T08:46:30.290Z,1.77
2017-12-03T08:47:30.265Z,1.71
2017-12-03T08:48:30.239Z,1.74
2017-12-03T08:49:30.228Z,1.88
2017-12-03T08:50:30.203Z,1.79
2017-12-03T08:51:30.192Z,1.79
2017-12-03T08:52:30.172Z,1.83
2017-12-03T08:53:30.193Z,1.74
2017-12-03T08:54:30.136Z,2.00
2017-12-03T08:55:30.111Z,2.01
2017-12-03T08:56:30.106Z,2.14
2017-12-03T08:57:30.084Z,2.14
2017-12-03T08:58:30.059Z,2.15
2017-12-03T08:59:30.040Z,2.11
2017-12-03T09:00:30.021Z,2.27
2017-12-03T09:01:30.008Z,2.36
2017-12-03T09:02:29.984Z,2.26
2017-12-03T09:03:29.976Z,2.30
2017-12-03T09:04:29.955Z,2.20
2017-12-03T09:05:29.937Z,2.11
2017-12-03T09:06:29.910Z,2.32
2017-12-03T09:07:29.893Z,2.25
2017-12-03T09:08:29.881Z,2.45
2017-12-03T09:09:29.859Z,2.32
2017-12-03T09:10:29.844Z,2.26
2017-12-03T09:11:29.821Z,2.26
2017-12-03T09:12:29.802Z,2.37
2017-12-03T09:13:29.785Z,2.41
2017-12-03T09:14:29.777Z,2.48
2017-12-03T09:15:29.745Z,2.41
2017-12-03T09:16:29.742Z,2.45
2017-12-03T09:17:29.709Z,2.36
2017-12-03T09:18:29.697Z,2.41
2017-12-03T09:19:29.679Z,2.41
2017-12-03T09:20:29.654Z,2.53
2017-12-03T09:21:29.637Z,2.40
2017-12-03T09:22:29.620Z,2.37
2017-12-03T09:23:29.602Z,2.41
2017-12-03T09:24:29.582Z,2.29
2017-12-03T09:25:29.566Z,2.43
2017-12-03T09:26:29.547Z,2.37
2017-12-03T09:27:29.528Z,2.37
2017-12-03T09:28:29.510Z,2.53
2017-12-03T09:29:29.501Z,2.56
2017-12-03T09:30:29.476Z,2.56
2017-12-03T09:31:29.457Z,2.59
2017-12-03T09:32:29.439Z,2.58
2017-12-03T09:33:29.425Z,2.53
2017-12-03T09:34:29.403Z,2.50
2017-12-03T09:35:29.394Z,2.65
2017-12-03T09:36:29.383Z,2.79
2017-12-03T09:37:29.347Z,2.81
2017-12-03T09:38:29.332Z,2.83
2017-12-03T09:39:29.321Z,2.74
2017-12-03T09:40:29.301Z,2.73
2017-12-03T09:41:29.276Z,2.69
2017-12-03T09:42:29.267Z,2.71
2017-12-03T09:43:29.249Z,2.65
2017-12-03T09:44:29.222Z,2.66
2017-12-03T09:45:29.214Z,2.66
2017-12-03T09:46:29.187Z,2.53
2017-12-03T09:47:29.174Z,2.44
2017-12-03T09:48:29.156Z,2.51
2017-12-03T09:49:29.146Z,2.47
2017-12-03T09:50:29.117Z,2.58
2017-12-03T09:51:29.097Z,2.65
2017-12-03T09:52:29.084Z,2.69
2017-12-03T09:53:29.066Z,2.69
2017-12-03T09:54:29.045Z,2.81
2017-12-03T09:55:29.027Z,2.73
2017-12-03T09:56:29.018Z,2.66
2017-12-03T09:57:28.989Z,2.68
2017-12-03T09:58:28.973Z,2.69
2017-12-03T09:59:28.960Z,2.79
2017-12-03T10:00:28.938Z,2.77
2017-12-03T10:01:28.922Z,2.83
2017-12-03T10:02:28.907Z,2.84
2017-12-03T10:03:28.891Z,2.86
2017-12-03T10:04:28.875Z,2.83
2017-12-03T10:05:28.847Z,2.89
2017-12-03T10:06:28.839Z,2.86
2017-12-03T10:07:28.812Z,2.94
2017-12-03T10:08:28.795Z,3.08
2017-12-03T10:09:28.776Z,3.17
2017-12-03T10:10:28.760Z,3.28
2017-12-03T10:11:28.751Z,3.35
2017-12-03T10:12:28.724Z,3.26
2017-12-03T10:13:28.706Z,3.15
2017-12-03T10:14:28.691Z,3.05
2017-12-03T10:15:28.678Z,3.07
2017-12-03T10:16:28.667Z,2.86
2017-12-03T10:17:28.642Z,2.87
2017-12-03T10:18:28.619Z,3.04
2017-12-03T10:19:28.611Z,2.94
2017-12-03T10:20:28.583Z,3.04
2017-12-03T10:21:28.565Z,3.05
2017-12-03T10:22:28.548Z,3.08
2017-12-03T10:23:28.535Z,2.89
2017-12-03T10:24:28.517Z,3.10
2017-12-03T10:25:28.510Z,3.10
2017-12-03T10:26:28.483Z,3.15
2017-12-03T10:27:28.461Z,3.12
2017-12-03T10:28:28.449Z,3.23
2017-12-03T10:29:28.431Z,3.19
2017-12-03T10:30:28.409Z,3.10
2017-12-03T10:31:28.394Z,3.31
2017-12-03T10:32:28.373Z,3.19
2017-12-03T10:33:28.355Z,3.26
2017-12-03T10:34:28.340Z,3.28
2017-12-03T10:35:28.336Z,3.37
2017-12-03T10:36:28.304Z,3.49
2017-12-03T10:37:28.290Z,3.59
2017-12-03T10:38:28.269Z,3.67
2017-12-03T10:39:28.264Z,3.67
2017-12-03T10:40:28.237Z,3.77
2017-12-03T10:41:28.219Z,3.84
2017-12-03T10:42:28.201Z,3.90
2017-12-03T10:43:28.182Z,3.93
2017-12-03T10:44:28.163Z,3.99
2017-12-03T10:45:28.146Z,3.95
2017-12-03T10:46:28.129Z,3.95
2017-12-03T10:47:28.120Z,4.00
2017-12-03T10:48:28.096Z,3.92
2017-12-03T10:49:28.090Z,3.86
2017-12-03T10:50:28.067Z,3.84
2017-12-03T10:51:28.041Z,3.86
2017-12-03T10:52:28.025Z,3.81
2017-12-03T10:53:28.016Z,3.72
2017-12-03T10:54:27.999Z,3.71
2017-12-03T10:55:27.982Z,3.78
2017-12-03T10:56:27.956Z,3.80
2017-12-03T10:57:27.942Z,3.86
2017-12-03T10:58:27.937Z,3.89
2017-12-03T10:59:27.908Z,3.93
2017-12-03T11:00:27.897Z,3.95
2017-12-03T11:01:27.880Z,4.00
2017-12-03T11:02:27.861Z,4.00
2017-12-03T11:03:27.838Z,3.95
2017-12-03T11:04:27.821Z,3.81
2017-12-03T11:05:27.814Z,3.88
2017-12-03T11:06:27.788Z,3.75
2017-12-03T11:07:27.776Z,3.59
2017-12-03T11:08:27.762Z,3.53
2017-12-03T11:09:27.748Z,3.53
2017-12-03T11:10:27.722Z,3.45
2017-12-03T11:11:27.710Z,3.52
2017-12-03T11:12:27.697Z,3.64
2017-12-03T11:13:27.670Z,3.74
2017-12-03T11:14:27.654Z,3.71
2017-12-03T11:15:27.651Z,3.60
2017-12-03T11:16:27.621Z,3.39
2017-12-03T11:17:27.609Z,3.44
2017-12-03T11:18:27.591Z,3.26
2017-12-03T11:19:27.577Z,3.10
2017-12-03T11:20:27.555Z,3.05
2017-12-03T11:21:27.537Z,3.04
2017-12-03T11:22:27.524Z,2.92
2017-12-03T11:23:27.505Z,2.92
2017-12-03T11:24:27.493Z,2.86
2017-12-03T11:25:27.478Z,2.86
2017-12-03T11:26:27.473Z,2.87
2017-12-03T11:27:27.442Z,2.95
2017-12-03T11:28:27.424Z,2.83
2017-12-03T11:29:27.418Z,2.58
2017-12-03T11:30:27.383Z,2.58
2017-12-03T11:31:27.374Z,2.62
2017-12-03T11:32:27.348Z,2.59
2017-12-03T11:33:27.332Z,2.50
2017-12-03T11:34:27.317Z,2.44
2017-12-03T11:35:27.297Z,2.38
2017-12-03T11:36:27.292Z,2.32
2017-12-03T11:37:27.261Z,2.36
2017-12-03T11:38:27.243Z,2.40
2017-12-03T11:39:27.233Z,2.55
2017-12-03T11:40:27.207Z,2.62
2017-12-03T11:41:27.192Z,2.74
2017-12-03T11:42:27.178Z,2.83
2017-12-03T11:43:27.154Z,2.84
2017-12-03T11:44:27.141Z,3.04
2017-12-03T11:45:27.124Z,3.22
2017-12-03T11:46:27.112Z,3.26
2017-12-03T11:47:27.098Z,3.23
2017-12-03T11:48:27.071Z,3.05
2017-12-03T11:49:27.049Z,2.90
2017-12-03T11:50:27.040Z,2.84
2017-12-03T11:51:27.020Z,2.86
2017-12-03T11:52:26.996Z,2.99
2017-12-03T11:53:26.977Z,2.89
2017-12-03T11:54:26.960Z,2.97
2017-12-03T11:55:26.953Z,2.89
2017-12-03T11:56:26.923Z,2.98
2017-12-03T11:57:26.907Z,3.13
2017-12-03T11:58:26.890Z,3.13
2017-12-03T11:59:26.870Z,3.20
2017-12-03T12:00:26.863Z,3.25
2017-12-03T12:01:26.839Z,3.45
2017-12-03T12:02:26.820Z,3.37
2017-12-03T12:03:26.804Z,3.35
2017-12-03T12:04:26.792Z,3.37
2017-12-03T12:05:26.768Z,3.25
2017-12-03T12:06:26.750Z,3.16
2017-12-03T12:07:26.732Z,3.17
2017-12-03T12:08:26.714Z,3.23
2017-12-03T12:09:26.699Z,3.30
2017-12-03T12:10:26.680Z,3.37
2017-12-03T12:11:26.664Z,3.37
2017-12-03T12:12:26.651Z,3.41
2017-12-03T12:13:26.645Z,3.50
2017-12-03T12:14:26.619Z,3.71
2017-12-03T12:15:26.591Z,3.74
2017-12-03T12:16:26.590Z,3.72
2017-12-03T12:17:26.567Z,3.80
2017-12-03T12:18:26.548Z,3.86
2017-12-03T12:19:26.526Z,3.90
2017-12-03T12:20:26.520Z,4.07
2017-12-03T12:21:26.492Z,4.00
2017-12-03T12:22:26.477Z,4.14
2017-12-03T12:23:26.470Z,4.14
2017-12-03T12:24:26.448Z,4.04
2017-12-03T12:25:26.424Z,3.92
2017-12-03T12:26:26.407Z,3.95
2017-12-03T12:27:26.397Z,3.90
2017-12-03T12:28:26.372Z,3.84
2017-12-03T12:29:26.372Z,3.77
2017-12-03T12:30:26.353Z,3.75
2017-12-03T12:31:26.321Z,3.71
2017-12-03T12:32:26.306Z,3.71
2017-12-03T12:33:26.290Z,3.67
2017-12-03T12:34:26.287Z,3.72
2017-12-03T12:35:26.255Z,3.70
2017-12-03T12:36:26.252Z,3.63
2017-12-03T12:37:26.222Z,3.68
2017-12-03T12:38:26.213Z,3.60
2017-12-03T12:39:26.188Z,3.59
2017-12-03T12:40:26.181Z,3.59
2017-12-03T12:41:26.156Z,3.64
2017-12-03T12:42:26.144Z,3.60
2017-12-03T12:43:26.123Z,3.59
2017-12-03T12:44:26.112Z,3.56
2017-12-03T12:45:26.102Z,3.59
2017-12-03T12:46:26.074Z,3.53
2017-12-03T12:47:26.056Z,3.54
2017-12-03T12:48:26.040Z,3.54
2017-12-03T12:49:26.022Z,3.68
2017-12-03T12:50:26.020Z,3.72
2017-12-03T12:51:25.987Z,3.68
2017-12-03T12:52:25.973Z,3.75
2017-12-03T12:53:25.957Z,3.74
2017-12-03T12:54:25.990Z,3.71
2017-12-03T12:55:25.920Z,3.72
2017-12-03T12:56:25.906Z,3.77
2017-12-03T12:57:25.890Z,3.78
2017-12-03T12:58:25.881Z,3.72
2017-12-03T12:59:25.855Z,3.71
2017-12-03T13:00:25.845Z,3.70
2017-12-03T13:01:25.834Z,3.68
2017-12-03T13:02:25.816Z,3.57
2017-12-03T13:03:25.795Z,3.53
2017-12-03T13:04:25.778Z,3.46
2017-12-03T13:05:25.761Z,3.42
2017-12-03T13:06:25.739Z,3.39
2017-12-03T13:07:25.729Z,3.45
2017-12-03T13:08:25.712Z,3.41
2017-12-03T13:09:25.691Z,3.50
2017-12-03T13:10:25.681Z,3.54
2017-12-03T13:11:25.665Z,3.57
2017-12-03T13:12:25.639Z,3.71
2017-12-03T13:13:25.624Z,3.74
2017-12-03T13:14:25.617Z,3.75
2017-12-03T13:15:25.595Z,3.82
2017-12-03T13:16:25.573Z,3.86
2017-12-03T13:17:25.556Z,3.80
2017-12-03T13:18:25.554Z,3.74